sensor_id;sensor_type;location;lat;lon;timestamp;P1;durP1;ratioP1;P2;durP2;ratioP2
80101;SDS011;69407;44.966;19.622;2024-01-27T00:01:04;73.25;;;29.73;;
80101;SDS011;69407;44.966;19.622;2024-01-27T00:03:29;60.10;;;26.30;;
80101;SDS011;69407;44.966;19.622;2024-01-27T00:05:54;53.80;;;24.43;;
80101;SDS011;69407;44.966;19.622;2024-01-27T00:08:20;52.85;;;24.35;;
80101;SDS011;69407;44.966;19.622;2024-01-27T00:10:46;50.55;;;23.65;;
80101;SDS011;69407;44.966;19.622;2024-01-27T00:13:11;44.15;;;21.90;;
80101;SDS011;69407;44.966;19.622;2024-01-27T00:15:37;37.85;;;18.42;;
80101;SDS011;69407;44.966;19.622;2024-01-27T00:18:02;35.17;;;16.00;;
80101;SDS011;69407;44.966;19.622;2024-01-27T00:20:27;36.40;;;15.57;;
80101;SDS011;69407;44.966;19.622;2024-01-27T00:22:53;35.88;;;17.20;;
80101;SDS011;69407;44.966;19.622;2024-01-27T00:25:18;31.90;;;15.30;;
80101;SDS011;69407;44.966;19.622;2024-01-27T00:27:43;34.83;;;16.48;;
80101;SDS011;69407;44.966;19.622;2024-01-27T00:30:09;32.60;;;15.88;;
80101;SDS011;69407;44.966;19.622;2024-01-27T00:32:36;36.58;;;17.42;;
80101;SDS011;69407;44.966;19.622;2024-01-27T00:35:02;35.50;;;17.70;;
80101;SDS011;69407;44.966;19.622;2024-01-27T00:37:28;37.38;;;19.02;;
80101;SDS011;69407;44.966;19.622;2024-01-27T00:39:53;41.03;;;22.33;;
80101;SDS011;69407;44.966;19.622;2024-01-27T00:42:18;38.92;;;19.90;;
80101;SDS011;69407;44.966;19.622;2024-01-27T00:44:48;42.25;;;21.15;;
80101;SDS011;69407;44.966;19.622;2024-01-27T00:47:14;44.03;;;22.10;;
80101;SDS011;69407;44.966;19.622;2024-01-27T00:49:39;44.87;;;23.27;;
80101;SDS011;69407;44.966;19.622;2024-01-27T00:52:05;41.80;;;21.00;;
80101;SDS011;69407;44.966;19.622;2024-01-27T00:54:30;41.47;;;21.90;;
80101;SDS011;69407;44.966;19.622;2024-01-27T00:56:55;42.43;;;20.87;;
80101;SDS011;69407;44.966;19.622;2024-01-27T00:59:20;42.33;;;20.70;;
80101;SDS011;69407;44.966;19.622;2024-01-27T01:01:46;37.37;;;20.90;;
80101;SDS011;69407;44.966;19.622;2024-01-27T01:04:11;43.35;;;21.75;;
80101;SDS011;69407;44.966;19.622;2024-01-27T01:06:38;39.40;;;22.03;;
80101;SDS011;69407;44.966;19.622;2024-01-27T01:09:03;41.38;;;21.70;;
80101;SDS011;69407;44.966;19.622;2024-01-27T01:11:29;45.13;;;20.80;;
80101;SDS011;69407;44.966;19.622;2024-01-27T01:13:54;42.22;;;22.10;;
80101;SDS011;69407;44.966;19.622;2024-01-27T01:16:20;44.03;;;23.27;;
80101;SDS011;69407;44.966;19.622;2024-01-27T01:18:45;54.70;;;26.70;;
80101;SDS011;69407;44.966;19.622;2024-01-27T01:21:10;52.40;;;27.60;;
80101;SDS011;69407;44.966;19.622;2024-01-27T01:23:36;51.38;;;24.73;;
80101;SDS011;69407;44.966;19.622;2024-01-27T01:26:01;42.90;;;24.00;;
80101;SDS011;69407;44.966;19.622;2024-01-27T01:28:26;48.75;;;23.52;;
80101;SDS011;69407;44.966;19.622;2024-01-27T01:30:51;44.60;;;24.13;;
80101;SDS011;69407;44.966;19.622;2024-01-27T01:33:17;51.25;;;26.83;;
80101;SDS011;69407;44.966;19.622;2024-01-27T01:35:42;52.58;;;26.33;;
80101;SDS011;69407;44.966;19.622;2024-01-27T01:38:07;51.45;;;26.23;;
80101;SDS011;69407;44.966;19.622;2024-01-27T01:40:34;60.05;;;27.75;;
80101;SDS011;69407;44.966;19.622;2024-01-27T01:42:59;59.63;;;28.17;;
80101;SDS011;69407;44.966;19.622;2024-01-27T01:45:25;58.08;;;26.13;;
80101;SDS011;69407;44.966;19.622;2024-01-27T01:47:50;46.20;;;21.37;;
80101;SDS011;69407;44.966;19.622;2024-01-27T01:50:15;42.30;;;20.60;;
80101;SDS011;69407;44.966;19.622;2024-01-27T01:52:41;39.08;;;19.08;;
80101;SDS011;69407;44.966;19.622;2024-01-27T01:55:06;31.03;;;16.30;;
80101;SDS011;69407;44.966;19.622;2024-01-27T01:57:33;32.08;;;15.57;;
80101;SDS011;69407;44.966;19.622;2024-01-27T01:59:58;29.80;;;13.45;;
80101;SDS011;69407;44.966;19.622;2024-01-27T02:02:23;26.00;;;11.68;;
80101;SDS011;69407;44.966;19.622;2024-01-27T02:04:49;23.60;;;10.88;;
80101;SDS011;69407;44.966;19.622;2024-01-27T02:07:15;22.92;;;10.32;;
80101;SDS011;69407;44.966;19.622;2024-01-27T02:09:41;21.10;;;9.30;;
80101;SDS011;69407;44.966;19.622;2024-01-27T02:12:06;21.27;;;8.73;;
80101;SDS011;69407;44.966;19.622;2024-01-27T02:14:32;15.73;;;7.03;;
80101;SDS011;69407;44.966;19.622;2024-01-27T02:16:57;18.50;;;8.48;;
80101;SDS011;69407;44.966;19.622;2024-01-27T02:19:23;19.35;;;7.18;;
80101;SDS011;69407;44.966;19.622;2024-01-27T02:21:48;15.93;;;6.88;;
80101;SDS011;69407;44.966;19.622;2024-01-27T02:24:13;14.52;;;5.57;;
80101;SDS011;69407;44.966;19.622;2024-01-27T02:26:39;16.42;;;6.50;;
80101;SDS011;69407;44.966;19.622;2024-01-27T02:29:04;12.82;;;5.85;;
80101;SDS011;69407;44.966;19.622;2024-01-27T02:31:29;16.50;;;5.63;;
80101;SDS011;69407;44.966;19.622;2024-01-27T02:33:55;14.07;;;5.38;;
80101;SDS011;69407;44.966;19.622;2024-01-27T02:36:20;12.20;;;5.05;;
80101;SDS011;69407;44.966;19.622;2024-01-27T02:38:45;12.63;;;4.80;;
80101;SDS011;69407;44.966;19.622;2024-01-27T02:41:11;11.40;;;5.10;;
80101;SDS011;69407;44.966;19.622;2024-01-27T02:43:36;11.15;;;4.47;;
80101;SDS011;69407;44.966;19.622;2024-01-27T02:46:02;8.73;;;3.58;;
80101;SDS011;69407;44.966;19.622;2024-01-27T02:48:27;10.93;;;4.20;;
80101;SDS011;69407;44.966;19.622;2024-01-27T02:50:54;8.05;;;3.92;;
80101;SDS011;69407;44.966;19.622;2024-01-27T02:53:19;8.63;;;4.35;;
80101;SDS011;69407;44.966;19.622;2024-01-27T02:55:44;11.63;;;4.13;;
80101;SDS011;69407;44.966;19.622;2024-01-27T02:58:09;7.72;;;3.47;;
80101;SDS011;69407;44.966;19.622;2024-01-27T03:00:35;9.68;;;3.67;;
80101;SDS011;69407;44.966;19.622;2024-01-27T03:03:00;10.30;;;3.92;;
80101;SDS011;69407;44.966;19.622;2024-01-27T03:05:25;13.57;;;3.70;;
80101;SDS011;69407;44.966;19.622;2024-01-27T03:07:51;9.60;;;4.00;;
80101;SDS011;69407;44.966;19.622;2024-01-27T03:10:16;8.27;;;2.60;;
80101;SDS011;69407;44.966;19.622;2024-01-27T03:12:41;12.02;;;3.72;;
80101;SDS011;69407;44.966;19.622;2024-01-27T03:15:07;8.15;;;3.50;;
80101;SDS011;69407;44.966;19.622;2024-01-27T03:17:33;12.30;;;4.55;;
80101;SDS011;69407;44.966;19.622;2024-01-27T03:19:58;13.07;;;4.90;;
80101;SDS011;69407;44.966;19.622;2024-01-27T03:22:23;9.82;;;3.78;;
80101;SDS011;69407;44.966;19.622;2024-01-27T03:24:49;10.68;;;3.08;;
80101;SDS011;69407;44.966;19.622;2024-01-27T03:27:16;9.38;;;3.50;;
80101;SDS011;69407;44.966;19.622;2024-01-27T03:29:42;7.03;;;2.28;;
80101;SDS011;69407;44.966;19.622;2024-01-27T03:32:07;9.23;;;3.50;;
80101;SDS011;69407;44.966;19.622;2024-01-27T03:34:32;9.63;;;5.00;;
80101;SDS011;69407;44.966;19.622;2024-01-27T03:36:57;9.15;;;2.78;;
80101;SDS011;69407;44.966;19.622;2024-01-27T03:39:23;9.93;;;3.40;;
80101;SDS011;69407;44.966;19.622;2024-01-27T03:41:48;9.57;;;3.33;;
80101;SDS011;69407;44.966;19.622;2024-01-27T03:44:13;10.80;;;2.80;;
80101;SDS011;69407;44.966;19.622;2024-01-27T03:46:39;9.80;;;4.05;;
80101;SDS011;69407;44.966;19.622;2024-01-27T03:49:04;12.10;;;5.05;;
80101;SDS011;69407;44.966;19.622;2024-01-27T03:51:29;8.98;;;3.85;;
80101;SDS011;69407;44.966;19.622;2024-01-27T03:53:55;7.80;;;3.70;;
80101;SDS011;69407;44.966;19.622;2024-01-27T03:56:20;7.03;;;3.17;;
80101;SDS011;69407;44.966;19.622;2024-01-27T03:58:45;11.13;;;3.93;;
80101;SDS011;69407;44.966;19.622;2024-01-27T04:01:11;9.97;;;3.97;;
80101;SDS011;69407;44.966;19.622;2024-01-27T04:03:36;7.18;;;2.67;;
80101;SDS011;69407;44.966;19.622;2024-01-27T04:06:01;6.85;;;3.08;;
80101;SDS011;69407;44.966;19.622;2024-01-27T04:08:28;9.05;;;2.90;;
80101;SDS011;69407;44.966;19.622;2024-01-27T04:10:53;7.95;;;3.28;;
80101;SDS011;69407;44.966;19.622;2024-01-27T04:13:18;7.83;;;3.07;;
80101;SDS011;69407;44.966;19.622;2024-01-27T04:15:44;4.83;;;1.70;;
80101;SDS011;69407;44.966;19.622;2024-01-27T04:18:09;7.10;;;2.50;;
80101;SDS011;69407;44.966;19.622;2024-01-27T04:20:36;5.70;;;1.73;;
80101;SDS011;69407;44.966;19.622;2024-01-27T04:23:01;4.57;;;1.48;;
80101;SDS011;69407;44.966;19.622;2024-01-27T04:25:27;5.13;;;1.67;;
80101;SDS011;69407;44.966;19.622;2024-01-27T04:27:52;4.35;;;2.03;;
80101;SDS011;69407;44.966;19.622;2024-01-27T04:30:19;7.35;;;2.55;;
80101;SDS011;69407;44.966;19.622;2024-01-27T04:32:44;7.97;;;2.38;;
80101;SDS011;69407;44.966;19.622;2024-01-27T04:35:10;2.53;;;0.43;;
80101;SDS011;69407;44.966;19.622;2024-01-27T04:37:35;2.22;;;0.50;;
80101;SDS011;69407;44.966;19.622;2024-01-27T04:40:01;1.30;;;0.30;;
80101;SDS011;69407;44.966;19.622;2024-01-27T04:42:26;1.00;;;0.20;;
80101;SDS011;69407;44.966;19.622;2024-01-27T04:44:51;1.17;;;0.30;;
80101;SDS011;69407;44.966;19.622;2024-01-27T04:47:17;1.48;;;0.32;;
80101;SDS011;69407;44.966;19.622;2024-01-27T04:49:42;1.10;;;0.32;;
80101;SDS011;69407;44.966;19.622;2024-01-27T04:52:07;1.60;;;0.30;;
80101;SDS011;69407;44.966;19.622;2024-01-27T04:54:33;3.35;;;0.32;;
80101;SDS011;69407;44.966;19.622;2024-01-27T04:56:58;1.13;;;0.20;;
80101;SDS011;69407;44.966;19.622;2024-01-27T04:59:23;2.15;;;0.90;;
80101;SDS011;69407;44.966;19.622;2024-01-27T05:01:49;2.35;;;0.52;;
80101;SDS011;69407;44.966;19.622;2024-01-27T05:04:15;2.72;;;1.10;;
80101;SDS011;69407;44.966;19.622;2024-01-27T05:06:43;3.97;;;1.17;;
80101;SDS011;69407;44.966;19.622;2024-01-27T05:09:09;2.78;;;0.70;;
80101;SDS011;69407;44.966;19.622;2024-01-27T05:11:34;1.03;;;0.30;;
80101;SDS011;69407;44.966;19.622;2024-01-27T05:14:00;6.97;;;1.43;;
80101;SDS011;69407;44.966;19.622;2024-01-27T05:16:25;2.42;;;0.63;;
80101;SDS011;69407;44.966;19.622;2024-01-27T05:18:50;2.28;;;0.65;;
80101;SDS011;69407;44.966;19.622;2024-01-27T05:21:16;4.67;;;2.63;;
80101;SDS011;69407;44.966;19.622;2024-01-27T05:23:41;3.15;;;1.52;;
80101;SDS011;69407;44.966;19.622;2024-01-27T05:26:06;4.75;;;1.38;;
80101;SDS011;69407;44.966;19.622;2024-01-27T05:28:32;3.63;;;1.05;;
80101;SDS011;69407;44.966;19.622;2024-01-27T05:30:58;1.98;;;0.30;;
80101;SDS011;69407;44.966;19.622;2024-01-27T05:33:23;10.43;;;2.55;;
80101;SDS011;69407;44.966;19.622;2024-01-27T05:35:49;11.68;;;3.38;;
80101;SDS011;69407;44.966;19.622;2024-01-27T05:38:14;16.27;;;5.20;;
80101;SDS011;69407;44.966;19.622;2024-01-27T05:40:39;14.27;;;3.70;;
80101;SDS011;69407;44.966;19.622;2024-01-27T05:43:04;5.03;;;1.50;;
80101;SDS011;69407;44.966;19.622;2024-01-27T05:45:30;2.90;;;0.73;;
80101;SDS011;69407;44.966;19.622;2024-01-27T05:47:56;1.90;;;0.52;;
80101;SDS011;69407;44.966;19.622;2024-01-27T05:50:21;5.20;;;1.30;;
80101;SDS011;69407;44.966;19.622;2024-01-27T05:52:47;3.47;;;1.35;;
80101;SDS011;69407;44.966;19.622;2024-01-27T05:55:12;10.73;;;2.50;;
80101;SDS011;69407;44.966;19.622;2024-01-27T05:57:38;1.92;;;0.52;;
80101;SDS011;69407;44.966;19.622;2024-01-27T06:00:03;17.77;;;5.28;;
80101;SDS011;69407;44.966;19.622;2024-01-27T06:02:29;17.35;;;7.60;;
80101;SDS011;69407;44.966;19.622;2024-01-27T06:04:54;7.50;;;2.73;;
80101;SDS011;69407;44.966;19.622;2024-01-27T06:07:19;9.18;;;3.97;;
80101;SDS011;69407;44.966;19.622;2024-01-27T06:09:44;8.20;;;3.90;;
80101;SDS011;69407;44.966;19.622;2024-01-27T06:12:10;4.63;;;2.17;;
80101;SDS011;69407;44.966;19.622;2024-01-27T06:14:35;4.60;;;1.53;;
80101;SDS011;69407;44.966;19.622;2024-01-27T06:17:01;6.85;;;2.30;;
80101;SDS011;69407;44.966;19.622;2024-01-27T06:19:26;4.60;;;1.63;;
80101;SDS011;69407;44.966;19.622;2024-01-27T06:21:52;3.25;;;1.27;;
80101;SDS011;69407;44.966;19.622;2024-01-27T06:24:17;4.13;;;1.60;;
80101;SDS011;69407;44.966;19.622;2024-01-27T06:26:42;2.90;;;1.07;;
80101;SDS011;69407;44.966;19.622;2024-01-27T06:29:08;5.28;;;2.00;;
80101;SDS011;69407;44.966;19.622;2024-01-27T06:31:33;4.07;;;1.50;;
80101;SDS011;69407;44.966;19.622;2024-01-27T06:33:58;8.48;;;3.90;;
80101;SDS011;69407;44.966;19.622;2024-01-27T06:36:23;33.03;;;18.10;;
80101;SDS011;69407;44.966;19.622;2024-01-27T06:38:50;15.57;;;8.65;;
80101;SDS011;69407;44.966;19.622;2024-01-27T06:41:16;20.60;;;10.23;;
80101;SDS011;69407;44.966;19.622;2024-01-27T06:43:42;19.08;;;10.23;;
80101;SDS011;69407;44.966;19.622;2024-01-27T06:46:07;13.48;;;7.00;;
80101;SDS011;69407;44.966;19.622;2024-01-27T06:48:32;7.47;;;2.73;;
80101;SDS011;69407;44.966;19.622;2024-01-27T06:50:58;8.60;;;3.93;;
80101;SDS011;69407;44.966;19.622;2024-01-27T06:53:23;17.13;;;9.17;;
80101;SDS011;69407;44.966;19.622;2024-01-27T06:55:48;13.07;;;5.63;;
80101;SDS011;69407;44.966;19.622;2024-01-27T06:58:13;6.30;;;2.63;;
80101;SDS011;69407;44.966;19.622;2024-01-27T07:00:39;17.20;;;9.73;;
80101;SDS011;69407;44.966;19.622;2024-01-27T07:03:05;15.70;;;11.70;;
80101;SDS011;69407;44.966;19.622;2024-01-27T07:05:31;14.60;;;6.50;;
80101;SDS011;69407;44.966;19.622;2024-01-27T07:07:58;7.22;;;3.25;;
80101;SDS011;69407;44.966;19.622;2024-01-27T07:10:23;12.80;;;6.68;;
80101;SDS011;69407;44.966;19.622;2024-01-27T07:12:49;11.80;;;5.70;;
80101;SDS011;69407;44.966;19.622;2024-01-27T07:15:14;3.63;;;1.93;;
80101;SDS011;69407;44.966;19.622;2024-01-27T07:17:39;6.28;;;2.80;;
80101;SDS011;69407;44.966;19.622;2024-01-27T07:20:05;10.18;;;3.47;;
80101;SDS011;69407;44.966;19.622;2024-01-27T07:22:30;9.48;;;4.72;;
80101;SDS011;69407;44.966;19.622;2024-01-27T07:24:55;8.00;;;1.83;;
80101;SDS011;69407;44.966;19.622;2024-01-27T07:27:21;6.00;;;1.98;;
80101;SDS011;69407;44.966;19.622;2024-01-27T07:29:47;4.78;;;1.77;;
80101;SDS011;69407;44.966;19.622;2024-01-27T07:32:12;2.90;;;1.10;;
80101;SDS011;69407;44.966;19.622;2024-01-27T07:34:41;2.78;;;0.90;;
80101;SDS011;69407;44.966;19.622;2024-01-27T07:37:06;5.55;;;3.28;;
80101;SDS011;69407;44.966;19.622;2024-01-27T07:39:33;2.80;;;1.08;;
80101;SDS011;69407;44.966;19.622;2024-01-27T07:41:58;5.28;;;1.10;;
80101;SDS011;69407;44.966;19.622;2024-01-27T07:44:23;2.95;;;1.20;;
80101;SDS011;69407;44.966;19.622;2024-01-27T07:46:49;6.22;;;2.60;;
80101;SDS011;69407;44.966;19.622;2024-01-27T07:49:14;6.13;;;1.80;;
80101;SDS011;69407;44.966;19.622;2024-01-27T07:51:40;3.22;;;2.10;;
80101;SDS011;69407;44.966;19.622;2024-01-27T07:54:05;3.30;;;1.85;;
80101;SDS011;69407;44.966;19.622;2024-01-27T07:56:30;4.55;;;1.58;;
80101;SDS011;69407;44.966;19.622;2024-01-27T07:58:56;14.07;;;5.97;;
80101;SDS011;69407;44.966;19.622;2024-01-27T08:01:21;4.05;;;3.13;;
80101;SDS011;69407;44.966;19.622;2024-01-27T08:03:47;3.35;;;1.48;;
80101;SDS011;69407;44.966;19.622;2024-01-27T08:06:16;5.43;;;2.88;;
80101;SDS011;69407;44.966;19.622;2024-01-27T08:08:50;4.20;;;1.98;;
80101;SDS011;69407;44.966;19.622;2024-01-27T08:11:17;3.67;;;2.90;;
80101;SDS011;69407;44.966;19.622;2024-01-27T08:13:42;12.70;;;7.20;;
80101;SDS011;69407;44.966;19.622;2024-01-27T08:16:08;20.05;;;7.55;;
80101;SDS011;69407;44.966;19.622;2024-01-27T08:18:41;14.70;;;8.82;;
80101;SDS011;69407;44.966;19.622;2024-01-27T08:21:10;10.13;;;4.80;;
80101;SDS011;69407;44.966;19.622;2024-01-27T08:23:36;13.63;;;6.88;;
80101;SDS011;69407;44.966;19.622;2024-01-27T08:26:02;11.27;;;4.15;;
80101;SDS011;69407;44.966;19.622;2024-01-27T08:28:27;5.53;;;2.95;;
80101;SDS011;69407;44.966;19.622;2024-01-27T08:30:52;7.55;;;3.65;;
80101;SDS011;69407;44.966;19.622;2024-01-27T08:33:18;15.63;;;8.43;;
80101;SDS011;69407;44.966;19.622;2024-01-27T08:35:43;7.15;;;3.58;;
80101;SDS011;69407;44.966;19.622;2024-01-27T08:38:09;9.27;;;5.55;;
80101;SDS011;69407;44.966;19.622;2024-01-27T08:40:34;8.02;;;4.55;;
80101;SDS011;69407;44.966;19.622;2024-01-27T08:43:00;6.35;;;3.80;;
80101;SDS011;69407;44.966;19.622;2024-01-27T08:45:25;6.20;;;3.42;;
80101;SDS011;69407;44.966;19.622;2024-01-27T08:47:51;5.00;;;4.25;;
80101;SDS011;69407;44.966;19.622;2024-01-27T08:50:16;8.18;;;5.28;;
80101;SDS011;69407;44.966;19.622;2024-01-27T08:52:42;6.78;;;4.18;;
80101;SDS011;69407;44.966;19.622;2024-01-27T08:55:07;9.10;;;4.63;;
80101;SDS011;69407;44.966;19.622;2024-01-27T08:57:33;6.20;;;5.07;;
80101;SDS011;69407;44.966;19.622;2024-01-27T08:59:58;13.33;;;11.07;;
80101;SDS011;69407;44.966;19.622;2024-01-27T09:02:23;5.73;;;3.20;;
80101;SDS011;69407;44.966;19.622;2024-01-27T09:04:48;6.87;;;4.23;;
80101;SDS011;69407;44.966;19.622;2024-01-27T09:07:14;7.77;;;4.77;;
80101;SDS011;69407;44.966;19.622;2024-01-27T09:09:39;5.47;;;3.05;;
80101;SDS011;69407;44.966;19.622;2024-01-27T09:12:05;17.75;;;15.18;;
80101;SDS011;69407;44.966;19.622;2024-01-27T09:14:30;13.45;;;9.20;;
80101;SDS011;69407;44.966;19.622;2024-01-27T09:16:55;8.50;;;5.70;;
80101;SDS011;69407;44.966;19.622;2024-01-27T09:19:21;8.77;;;4.35;;
80101;SDS011;69407;44.966;19.622;2024-01-27T09:21:47;6.32;;;3.65;;
80101;SDS011;69407;44.966;19.622;2024-01-27T09:24:12;7.22;;;3.72;;
80101;SDS011;69407;44.966;19.622;2024-01-27T09:26:37;9.07;;;5.43;;
80101;SDS011;69407;44.966;19.622;2024-01-27T09:29:02;6.60;;;3.13;;
80101;SDS011;69407;44.966;19.622;2024-01-27T09:31:28;3.63;;;1.08;;
80101;SDS011;69407;44.966;19.622;2024-01-27T09:33:53;8.05;;;3.80;;
80101;SDS011;69407;44.966;19.622;2024-01-27T09:36:19;6.85;;;2.30;;
80101;SDS011;69407;44.966;19.622;2024-01-27T09:38:44;5.45;;;3.60;;
80101;SDS011;69407;44.966;19.622;2024-01-27T09:41:11;3.72;;;2.25;;
80101;SDS011;69407;44.966;19.622;2024-01-27T09:43:37;5.22;;;2.10;;
80101;SDS011;69407;44.966;19.622;2024-01-27T09:46:04;4.50;;;1.52;;
80101;SDS011;69407;44.966;19.622;2024-01-27T09:48:29;6.78;;;2.08;;
80101;SDS011;69407;44.966;19.622;2024-01-27T09:50:54;6.60;;;2.80;;
80101;SDS011;69407;44.966;19.622;2024-01-27T09:53:21;3.70;;;1.35;;
80101;SDS011;69407;44.966;19.622;2024-01-27T09:55:46;6.22;;;1.70;;
80101;SDS011;69407;44.966;19.622;2024-01-27T09:58:11;5.07;;;1.98;;
80101;SDS011;69407;44.966;19.622;2024-01-27T10:00:37;6.60;;;2.05;;
80101;SDS011;69407;44.966;19.622;2024-01-27T10:03:03;4.20;;;1.63;;
80101;SDS011;69407;44.966;19.622;2024-01-27T10:05:30;8.27;;;2.63;;
80101;SDS011;69407;44.966;19.622;2024-01-27T10:07:56;6.40;;;2.10;;
80101;SDS011;69407;44.966;19.622;2024-01-27T10:10:21;5.37;;;2.37;;
80101;SDS011;69407;44.966;19.622;2024-01-27T10:12:47;4.65;;;1.30;;
80101;SDS011;69407;44.966;19.622;2024-01-27T10:15:20;5.18;;;1.63;;
80101;SDS011;69407;44.966;19.622;2024-01-27T10:17:46;5.60;;;2.38;;
80101;SDS011;69407;44.966;19.622;2024-01-27T10:20:11;6.53;;;3.45;;
80101;SDS011;69407;44.966;19.622;2024-01-27T10:22:42;13.90;;;3.90;;
80101;SDS011;69407;44.966;19.622;2024-01-27T10:25:09;5.78;;;2.65;;
80101;SDS011;69407;44.966;19.622;2024-01-27T10:27:35;4.00;;;2.05;;
80101;SDS011;69407;44.966;19.622;2024-01-27T10:30:01;9.43;;;3.28;;
80101;SDS011;69407;44.966;19.622;2024-01-27T10:32:27;4.55;;;1.58;;
80101;SDS011;69407;44.966;19.622;2024-01-27T10:35:02;2.45;;;1.10;;
80101;SDS011;69407;44.966;19.622;2024-01-27T10:37:27;7.55;;;3.97;;
80101;SDS011;69407;44.966;19.622;2024-01-27T10:40:00;5.15;;;3.08;;
80101;SDS011;69407;44.966;19.622;2024-01-27T10:42:26;5.63;;;2.45;;
80101;SDS011;69407;44.966;19.622;2024-01-27T10:44:52;8.48;;;2.72;;
80101;SDS011;69407;44.966;19.622;2024-01-27T10:47:18;11.32;;;4.53;;
80101;SDS011;69407;44.966;19.622;2024-01-27T10:49:45;6.35;;;2.38;;
80101;SDS011;69407;44.966;19.622;2024-01-27T10:52:11;4.07;;;1.90;;
80101;SDS011;69407;44.966;19.622;2024-01-27T10:54:39;5.20;;;2.00;;
80101;SDS011;69407;44.966;19.622;2024-01-27T10:57:05;6.45;;;3.55;;
80101;SDS011;69407;44.966;19.622;2024-01-27T10:59:31;7.50;;;4.93;;
80101;SDS011;69407;44.966;19.622;2024-01-27T11:01:57;5.88;;;2.88;;
80101;SDS011;69407;44.966;19.622;2024-01-27T11:04:22;10.20;;;4.85;;
80101;SDS011;69407;44.966;19.622;2024-01-27T11:06:48;7.22;;;3.28;;
80101;SDS011;69407;44.966;19.622;2024-01-27T11:09:14;9.02;;;4.03;;
80101;SDS011;69407;44.966;19.622;2024-01-27T11:11:40;7.60;;;4.43;;
80101;SDS011;69407;44.966;19.622;2024-01-27T11:14:06;7.32;;;3.75;;
80101;SDS011;69407;44.966;19.622;2024-01-27T11:16:32;8.77;;;5.03;;
80101;SDS011;69407;44.966;19.622;2024-01-27T11:18:57;8.88;;;4.35;;
80101;SDS011;69407;44.966;19.622;2024-01-27T11:21:23;5.95;;;2.63;;
80101;SDS011;69407;44.966;19.622;2024-01-27T11:23:48;7.78;;;3.92;;
80101;SDS011;69407;44.966;19.622;2024-01-27T11:26:20;6.18;;;4.75;;
80101;SDS011;69407;44.966;19.622;2024-01-27T11:28:47;3.65;;;2.33;;
80101;SDS011;69407;44.966;19.622;2024-01-27T11:31:12;3.70;;;1.83;;
80101;SDS011;69407;44.966;19.622;2024-01-27T11:33:41;4.15;;;2.28;;
80101;SDS011;69407;44.966;19.622;2024-01-27T11:36:14;8.95;;;3.88;;
80101;SDS011;69407;44.966;19.622;2024-01-27T11:38:42;8.05;;;4.47;;
80101;SDS011;69407;44.966;19.622;2024-01-27T11:41:07;5.00;;;3.95;;
80101;SDS011;69407;44.966;19.622;2024-01-27T11:43:33;5.80;;;2.67;;
80101;SDS011;69407;44.966;19.622;2024-01-27T11:45:59;6.35;;;3.33;;
80101;SDS011;69407;44.966;19.622;2024-01-27T11:48:24;7.82;;;4.88;;
80101;SDS011;69407;44.966;19.622;2024-01-27T11:51:11;7.22;;;4.63;;
80101;SDS011;69407;44.966;19.622;2024-01-27T11:53:35;6.03;;;3.78;;
80101;SDS011;69407;44.966;19.622;2024-01-27T11:56:00;4.65;;;3.10;;
80101;SDS011;69407;44.966;19.622;2024-01-27T11:58:27;5.78;;;3.03;;
80101;SDS011;69407;44.966;19.622;2024-01-27T12:00:52;4.88;;;2.75;;
80101;SDS011;69407;44.966;19.622;2024-01-27T12:03:18;4.43;;;3.08;;
80101;SDS011;69407;44.966;19.622;2024-01-27T12:05:43;6.78;;;4.45;;
80101;SDS011;69407;44.966;19.622;2024-01-27T12:08:08;11.77;;;6.85;;
80101;SDS011;69407;44.966;19.622;2024-01-27T12:10:34;6.45;;;3.30;;
80101;SDS011;69407;44.966;19.622;2024-01-27T12:13:00;11.20;;;5.47;;
80101;SDS011;69407;44.966;19.622;2024-01-27T12:15:25;8.32;;;4.50;;
80101;SDS011;69407;44.966;19.622;2024-01-27T12:17:51;6.60;;;2.88;;
80101;SDS011;69407;44.966;19.622;2024-01-27T12:20:17;6.07;;;2.95;;
80101;SDS011;69407;44.966;19.622;2024-01-27T12:22:42;11.32;;;3.67;;
80101;SDS011;69407;44.966;19.622;2024-01-27T12:25:08;9.07;;;3.28;;
80101;SDS011;69407;44.966;19.622;2024-01-27T12:27:34;6.57;;;3.38;;
80101;SDS011;69407;44.966;19.622;2024-01-27T12:30:00;5.95;;;3.85;;
80101;SDS011;69407;44.966;19.622;2024-01-27T12:32:25;9.15;;;5.00;;
80101;SDS011;69407;44.966;19.622;2024-01-27T12:34:50;9.10;;;4.10;;
80101;SDS011;69407;44.966;19.622;2024-01-27T12:37:16;6.53;;;2.40;;
80101;SDS011;69407;44.966;19.622;2024-01-27T12:39:44;8.00;;;3.38;;
80101;SDS011;69407;44.966;19.622;2024-01-27T12:42:10;8.40;;;4.05;;
80101;SDS011;69407;44.966;19.622;2024-01-27T12:44:36;2.38;;;0.93;;
80101;SDS011;69407;44.966;19.622;2024-01-27T12:47:01;4.13;;;1.73;;
80101;SDS011;69407;44.966;19.622;2024-01-27T12:49:26;9.32;;;2.38;;
80101;SDS011;69407;44.966;19.622;2024-01-27T12:51:52;7.00;;;1.45;;
80101;SDS011;69407;44.966;19.622;2024-01-27T12:54:17;5.57;;;2.45;;
80101;SDS011;69407;44.966;19.622;2024-01-27T12:56:43;5.65;;;1.73;;
80101;SDS011;69407;44.966;19.622;2024-01-27T12:59:08;8.50;;;3.72;;
80101;SDS011;69407;44.966;19.622;2024-01-27T13:01:33;7.70;;;3.33;;
80101;SDS011;69407;44.966;19.622;2024-01-27T13:03:59;5.97;;;3.30;;
80101;SDS011;69407;44.966;19.622;2024-01-27T13:06:25;7.05;;;2.90;;
80101;SDS011;69407;44.966;19.622;2024-01-27T13:08:50;7.35;;;3.05;;
80101;SDS011;69407;44.966;19.622;2024-01-27T13:11:17;6.35;;;3.17;;
80101;SDS011;69407;44.966;19.622;2024-01-27T13:13:42;8.88;;;4.63;;
80101;SDS011;69407;44.966;19.622;2024-01-27T13:16:07;6.40;;;3.40;;
80101;SDS011;69407;44.966;19.622;2024-01-27T13:18:33;4.03;;;1.77;;
80101;SDS011;69407;44.966;19.622;2024-01-27T13:20:58;9.32;;;4.65;;
80101;SDS011;69407;44.966;19.622;2024-01-27T13:23:24;23.13;;;12.65;;
80101;SDS011;69407;44.966;19.622;2024-01-27T13:25:50;13.50;;;6.45;;
80101;SDS011;69407;44.966;19.622;2024-01-27T13:28:15;5.70;;;2.85;;
80101;SDS011;69407;44.966;19.622;2024-01-27T13:30:40;8.65;;;3.90;;
80101;SDS011;69407;44.966;19.622;2024-01-27T13:33:07;5.75;;;3.72;;
80101;SDS011;69407;44.966;19.622;2024-01-27T13:35:32;3.42;;;1.80;;
80101;SDS011;69407;44.966;19.622;2024-01-27T13:37:57;5.55;;;3.05;;
80101;SDS011;69407;44.966;19.622;2024-01-27T13:40:23;6.55;;;3.50;;
80101;SDS011;69407;44.966;19.622;2024-01-27T13:42:48;7.18;;;3.15;;
80101;SDS011;69407;44.966;19.622;2024-01-27T13:45:13;14.40;;;9.23;;
80101;SDS011;69407;44.966;19.622;2024-01-27T13:47:39;6.30;;;3.25;;
80101;SDS011;69407;44.966;19.622;2024-01-27T13:50:04;8.10;;;3.35;;
80101;SDS011;69407;44.966;19.622;2024-01-27T13:52:30;7.20;;;3.28;;
80101;SDS011;69407;44.966;19.622;2024-01-27T13:54:55;6.57;;;2.75;;
80101;SDS011;69407;44.966;19.622;2024-01-27T13:57:21;6.55;;;3.15;;
80101;SDS011;69407;44.966;19.622;2024-01-27T13:59:46;6.07;;;2.42;;
80101;SDS011;69407;44.966;19.622;2024-01-27T14:02:12;8.73;;;4.20;;
80101;SDS011;69407;44.966;19.622;2024-01-27T14:04:38;5.45;;;1.95;;
80101;SDS011;69407;44.966;19.622;2024-01-27T14:07:03;5.22;;;1.60;;
80101;SDS011;69407;44.966;19.622;2024-01-27T14:09:31;4.45;;;1.70;;
80101;SDS011;69407;44.966;19.622;2024-01-27T14:11:57;5.32;;;2.05;;
80101;SDS011;69407;44.966;19.622;2024-01-27T14:14:22;8.95;;;3.15;;
80101;SDS011;69407;44.966;19.622;2024-01-27T14:16:47;12.80;;;4.30;;
80101;SDS011;69407;44.966;19.622;2024-01-27T14:19:13;7.68;;;2.60;;